createdAt,value
2018-12-30T19:28:34.464Z,1024.74
2018-12-30T19:29:34.454Z,1024.76
2018-12-30T19:30:34.409Z,1024.75
2018-12-30T19:31:34.399Z,1024.77
2018-12-30T19:32:34.392Z,1024.77
2018-12-30T19:33:34.383Z,1024.75
2018-12-30T19:34:34.385Z,1024.77
2018-12-30T19:35:34.354Z,1024.73
2018-12-30T19:36:34.340Z,1024.70
2018-12-30T19:37:34.332Z,1024.70
2018-12-30T19:38:34.318Z,1024.70
2018-12-30T19:39:34.336Z,1024.71
2018-12-30T19:40:34.305Z,1024.69
2018-12-30T19:41:34.297Z,1024.71
2018-12-30T19:42:34.277Z,1024.68
2018-12-30T19:43:34.281Z,1024.70
2018-12-30T19:44:34.289Z,1024.68
2018-12-30T19:45:34.256Z,1024.64
2018-12-30T19:46:34.313Z,1024.61
2018-12-30T19:47:34.226Z,1024.64
2018-12-30T19:48:34.217Z,1024.62
2018-12-30T19:49:34.268Z,1024.65
2018-12-30T19:50:34.196Z,1024.58
2018-12-30T19:51:34.192Z,1024.62
2018-12-30T19:52:34.180Z,1024.62
2018-12-30T19:53:34.167Z,1024.57
2018-12-30T19:54:34.186Z,1024.56
2018-12-30T19:55:34.149Z,1024.57
2018-12-30T19:56:34.150Z,1024.57
2018-12-30T19:57:34.127Z,1024.55
2018-12-30T19:58:34.121Z,1024.56
2018-12-30T19:59:34.114Z,1024.60
2018-12-30T20:00:34.134Z,1024.54
2018-12-30T20:01:34.088Z,1024.53
2018-12-30T20:02:34.088Z,1024.53
2018-12-30T20:03:34.066Z,1024.48
2018-12-30T20:04:40.589Z,1024.45
2018-12-30T20:05:35.073Z,1024.37
2018-12-30T20:06:34.043Z,1024.39
2018-12-30T20:07:34.017Z,1024.34
2018-12-30T20:08:34.006Z,1024.37
2018-12-30T20:09:34.900Z,1024.35
2018-12-30T20:10:34.039Z,1024.36
2018-12-30T20:11:33.985Z,1024.39
2018-12-30T20:12:33.965Z,1024.37
2018-12-30T20:13:33.976Z,1024.34
2018-12-30T20:14:33.950Z,1024.35
2018-12-30T20:15:33.966Z,1024.34
2018-12-30T20:16:33.956Z,1024.29
2018-12-30T20:17:33.910Z,1024.30
2018-12-30T20:18:33.912Z,1024.31
2018-12-30T20:19:33.889Z,1024.30
2018-12-30T20:20:33.883Z,1024.31
2018-12-30T20:21:33.902Z,1024.26
2018-12-30T20:22:33.858Z,1024.29
2018-12-30T20:23:33.846Z,1024.30
2018-12-30T20:24:33.837Z,1024.27
2018-12-30T20:25:35.397Z,1024.25
2018-12-30T20:26:33.842Z,1024.24
2018-12-30T20:27:33.803Z,1024.16
2018-12-30T20:28:33.805Z,1024.18
2018-12-30T20:29:33.789Z,1024.16
2018-12-30T20:30:33.788Z,1024.11
2018-12-30T20:31:33.792Z,1024.10
2018-12-30T20:32:33.756Z,1024.06
2018-12-30T20:33:33.740Z,1024.04
2018-12-30T20:34:33.742Z,1024.05
2018-12-30T20:35:33.719Z,1024.00
2018-12-30T20:36:33.737Z,1024.02
2018-12-30T20:37:33.703Z,1023.98
2018-12-30T20:38:33.679Z,1023.92
2018-12-30T20:39:33.676Z,1023.94
2018-12-30T20:40:33.668Z,1023.97
2018-12-30T20:41:33.644Z,1023.97
2018-12-30T20:42:33.677Z,1023.96
2018-12-30T20:43:33.625Z,1023.94
2018-12-30T20:44:33.621Z,1023.92
2018-12-30T20:45:33.608Z,1023.90
2018-12-30T20:46:33.618Z,1023.95
2018-12-30T20:47:33.612Z,1023.94
2018-12-30T20:48:33.566Z,1023.97
2018-12-30T20:49:33.557Z,1023.96
2018-12-30T20:50:33.557Z,1023.97
2018-12-30T20:51:33.534Z,1023.98
2018-12-30T20:52:33.549Z,1024.01
2018-12-30T20:53:33.507Z,1024.01
2018-12-30T20:54:33.506Z,1024.02
2018-12-30T20:55:33.494Z,1024.07
2018-12-30T20:56:37.615Z,1024.03
2018-12-30T20:57:33.494Z,1024.04
2018-12-30T20:58:33.455Z,1024.01
2018-12-30T20:59:33.443Z,1024.01
2018-12-30T21:00:33.438Z,1024.04
2018-12-30T21:01:33.480Z,1024.06
2018-12-30T21:02:33.440Z,1024.08
2018-12-30T21:03:33.400Z,1024.04
2018-12-30T21:04:33.402Z,1024.06
2018-12-30T21:05:33.375Z,1024.04
2018-12-30T21:06:33.415Z,1024.03
2018-12-30T21:07:33.359Z,1024.03
2018-12-30T21:08:33.380Z,1024.02
2018-12-30T21:09:33.330Z,1023.97
2018-12-30T21:10:33.318Z,1024.01
2018-12-30T21:11:33.313Z,1023.97
2018-12-30T21:12:33.301Z,1023.97
2018-12-30T21:13:33.310Z,1023.94
2018-12-30T21:14:33.278Z,1023.89
2018-12-30T21:15:33.277Z,1023.91
2018-12-30T21:16:33.257Z,1023.89
2018-12-30T21:17:33.241Z,1023.91
2018-12-30T21:18:33.273Z,1023.88
2018-12-30T21:19:33.219Z,1023.86
2018-12-30T21:20:33.212Z,1023.86
2018-12-30T21:21:33.211Z,1023.92
2018-12-30T21:22:33.189Z,1023.87
2018-12-30T21:23:33.207Z,1023.92
2018-12-30T21:24:33.171Z,1023.95
2018-12-30T21:25:33.164Z,1023.97
2018-12-30T21:26:33.317Z,1023.95
2018-12-30T21:27:33.131Z,1023.92
2018-12-30T21:28:33.160Z,1023.91
2018-12-30T21:29:33.112Z,1023.96
2018-12-30T21:30:33.097Z,1023.94
2018-12-30T21:31:33.097Z,1023.94
2018-12-30T21:32:33.075Z,1023.93
2018-12-30T21:33:33.062Z,1023.94
2018-12-30T21:34:33.081Z,1023.92
2018-12-30T21:35:33.041Z,1024.01
2018-12-30T21:36:33.030Z,1024.07
2018-12-30T21:37:33.026Z,1024.04
2018-12-30T21:38:33.012Z,1024.04
2018-12-30T21:39:33.030Z,1024.01
2018-12-30T21:40:32.987Z,1023.98
2018-12-30T21:41:32.975Z,1023.97
2018-12-30T21:42:32.964Z,1023.95
2018-12-30T21:43:32.953Z,1023.96
2018-12-30T21:44:32.969Z,1023.95
2018-12-30T21:45:32.948Z,1023.96
2018-12-30T21:46:32.919Z,1023.96
2018-12-30T21:47:32.908Z,1023.99
2018-12-30T21:48:32.904Z,1024.00
2018-12-30T21:49:32.935Z,1024.05
2018-12-30T21:50:32.873Z,1024.04
2018-12-30T21:51:32.862Z,1024.05
2018-12-30T21:52:32.860Z,1024.01
2018-12-30T21:53:32.841Z,1024.06
2018-12-30T21:54:32.832Z,1024.00
2018-12-30T21:55:32.864Z,1024.02
2018-12-30T21:56:32.818Z,1024.06
2018-12-30T21:57:32.796Z,1024.07
2018-12-30T21:58:32.786Z,1024.08
2018-12-30T21:59:32.835Z,1024.13
2018-12-30T22:00:32.763Z,1024.15
2018-12-30T22:01:32.755Z,1024.14
2018-12-30T22:02:32.790Z,1024.16
2018-12-30T22:03:32.734Z,1024.13
2018-12-30T22:04:32.794Z,1024.15
2018-12-30T22:05:32.736Z,1024.16
2018-12-30T22:06:32.701Z,1024.08
2018-12-30T22:07:32.695Z,1024.11
2018-12-30T22:08:32.677Z,1024.13
2018-12-30T22:09:32.702Z,1024.11
2018-12-30T22:10:32.658Z,1024.13
2018-12-30T22:11:32.645Z,1024.09
2018-12-30T22:12:32.629Z,1024.07
2018-12-30T22:13:32.624Z,1024.06
2018-12-30T22:14:32.649Z,1024.05
2018-12-30T22:15:32.596Z,1024.06
2018-12-30T22:16:32.585Z,1024.02
2018-12-30T22:17:32.572Z,1024.00
2018-12-30T22:18:32.563Z,1023.95
2018-12-30T22:19:32.551Z,1023.98
2018-12-30T22:20:32.566Z,1023.97
2018-12-30T22:21:32.575Z,1023.95
2018-12-30T22:22:32.522Z,1023.92
2018-12-30T22:23:32.508Z,1023.95
2018-12-30T22:24:32.494Z,1023.98
2018-12-30T22:25:32.520Z,1023.97
2018-12-30T22:26:32.500Z,1023.95
2018-12-30T22:27:32.460Z,1023.91
2018-12-30T22:28:32.450Z,1023.90
2018-12-30T22:29:32.438Z,1023.87
2018-12-30T22:30:32.455Z,1023.90
2018-12-30T22:31:32.415Z,1023.90
2018-12-30T22:32:32.403Z,1023.90
2018-12-30T22:33:32.400Z,1023.92
2018-12-30T22:34:32.386Z,1023.95
2018-12-30T22:35:32.400Z,1023.95
2018-12-30T22:36:32.357Z,1023.94
2018-12-30T22:37:32.363Z,1023.97
2018-12-30T22:38:32.345Z,1023.96
2018-12-30T22:39:32.326Z,1023.94
2018-12-30T22:40:32.345Z,1024.01
2018-12-30T22:41:32.332Z,1024.03
2018-12-30T22:42:32.980Z,1024.01
2018-12-30T22:43:32.283Z,1024.06
2018-12-30T22:44:32.272Z,1024.09
2018-12-30T22:45:32.256Z,1024.07
2018-12-30T22:46:32.307Z,1024.10
2018-12-30T22:47:32.231Z,1024.07
2018-12-30T22:48:32.240Z,1024.08
2018-12-30T22:49:32.211Z,1024.09
2018-12-30T22:50:32.210Z,1024.06
2018-12-30T22:51:32.224Z,1024.10
2018-12-30T22:52:32.218Z,1024.12
2018-12-30T22:53:32.171Z,1024.16
2018-12-30T22:54:32.157Z,1024.16
2018-12-30T22:55:32.140Z,1024.12
2018-12-30T22:56:32.139Z,1024.09
2018-12-30T22:57:32.179Z,1024.06
2018-12-30T22:58:32.113Z,1024.07
2018-12-30T22:59:32.098Z,1024.07
2018-12-30T23:00:32.084Z,1024.02
2018-12-30T23:01:32.081Z,1024.06
2018-12-30T23:02:32.095Z,1024.06
2018-12-30T23:03:32.061Z,1024.06
2018-12-30T23:04:32.043Z,1024.09
2018-12-30T23:05:32.038Z,1024.04
2018-12-30T23:06:32.064Z,1024.04
2018-12-30T23:07:32.027Z,1024.01
2018-12-30T23:08:31.995Z,1024.02
2018-12-30T23:09:31.984Z,1024.05
2018-12-30T23:10:31.972Z,1024.04
2018-12-30T23:11:31.962Z,1024.11
2018-12-30T23:12:31.993Z,1024.10
2018-12-30T23:13:31.941Z,1024.10
2018-12-30T23:14:32.014Z,1024.10
2018-12-30T23:15:31.913Z,1024.07
2018-12-30T23:16:31.932Z,1024.10
2018-12-30T23:17:31.925Z,1024.09
2018-12-30T23:18:31.879Z,1024.08
2018-12-30T23:19:31.868Z,1024.07
2018-12-30T23:20:31.869Z,1024.07
2018-12-30T23:21:31.847Z,1024.00
2018-12-30T23:22:31.869Z,1024.02
2018-12-30T23:23:31.823Z,1024.02
2018-12-30T23:24:31.821Z,1024.06
2018-12-30T23:25:31.800Z,1024.07
2018-12-30T23:26:31.790Z,1024.01
2018-12-30T23:27:31.812Z,1024.06
2018-12-30T23:28:31.770Z,1024.05
2018-12-30T23:29:31.762Z,1024.06
2018-12-30T23:30:31.753Z,1024.06
2018-12-30T23:31:31.736Z,1024.11
2018-12-30T23:32:31.763Z,1024.09
2018-12-30T23:33:31.740Z,1024.13
2018-12-30T23:34:31.708Z,1024.12
2018-12-30T23:35:31.695Z,1024.13
2018-12-30T23:36:31.690Z,1024.11
2018-12-30T23:37:31.676Z,1024.14
2018-12-30T23:38:31.697Z,1024.14
2018-12-30T23:39:31.656Z,1024.16
2018-12-30T23:40:31.648Z,1024.18
2018-12-30T23:41:31.635Z,1024.18
2018-12-30T23:42:31.623Z,1024.18
2018-12-30T23:43:31.647Z,1024.19
2018-12-30T23:44:31.608Z,1024.23
2018-12-30T23:45:31.586Z,1024.22
2018-12-30T23:46:31.587Z,1024.22
2018-12-30T23:47:31.598Z,1024.24
2018-12-30T23:48:31.580Z,1024.24
2018-12-30T23:49:31.567Z,1024.23
2018-12-30T23:50:31.537Z,1024.26
2018-12-30T23:51:31.522Z,1024.27
2018-12-30T23:52:31.511Z,1024.24
2018-12-30T23:53:31.546Z,1024.27
2018-12-30T23:54:31.530Z,1024.30
2018-12-30T23:55:31.481Z,1024.28
2018-12-30T23:56:31.469Z,1024.26
2018-12-30T23:57:31.460Z,1024.25
2018-12-30T23:58:31.494Z,1024.25
2018-12-30T23:59:31.465Z,1024.28
